sensor_id;sensor_type;location;lat;lon;timestamp;pressure;altitude;pressure_sealevel;temperature;humidity
72118;BME280;59992;47.490;8.736;2022-12-10T00:00:19;95268.10;;;1.72;92.76
72118;BME280;59992;47.490;8.736;2022-12-10T00:03:09;95269.41;;;1.73;92.89
72118;BME280;59992;47.490;8.736;2022-12-10T00:06:02;95270.90;;;1.74;92.12
72118;BME280;59992;47.490;8.736;2022-12-10T00:08:53;95275.28;;;1.73;92.69
72118;BME280;59992;47.490;8.736;2022-12-10T00:11:43;95276.77;;;1.73;92.71
72118;BME280;59992;47.490;8.736;2022-12-10T00:14:34;95275.23;;;1.71;92.62
72118;BME280;59992;47.490;8.736;2022-12-10T00:17:24;95274.17;;;1.73;93.07
72118;BME280;59992;47.490;8.736;2022-12-10T00:20:15;95267.39;;;1.76;92.62
72118;BME280;59992;47.490;8.736;2022-12-10T00:23:05;95265.70;;;1.80;92.32
72118;BME280;59992;47.490;8.736;2022-12-10T00:25:56;95267.83;;;1.86;92.15
72118;BME280;59992;47.490;8.736;2022-12-10T00:28:51;95264.09;;;1.88;91.56
72118;BME280;59992;47.490;8.736;2022-12-10T00:31:42;95256.86;;;1.89;91.85
72118;BME280;59992;47.490;8.736;2022-12-10T00:34:32;95255.48;;;1.87;92.32
72118;BME280;59992;47.490;8.736;2022-12-10T00:37:23;95261.05;;;1.86;92.02
72118;BME280;59992;47.490;8.736;2022-12-10T00:40:13;95258.02;;;1.88;91.55
72118;BME280;59992;47.490;8.736;2022-12-10T00:43:03;95260.23;;;1.86;90.83
72118;BME280;59992;47.490;8.736;2022-12-10T00:45:54;95262.40;;;1.87;91.77
72118;BME280;59992;47.490;8.736;2022-12-10T00:48:45;95260.84;;;1.87;91.04
72118;BME280;59992;47.490;8.736;2022-12-10T00:51:35;95255.80;;;1.88;90.96
72118;BME280;59992;47.490;8.736;2022-12-10T00:54:26;95249.29;;;1.91;91.43
72118;BME280;59992;47.490;8.736;2022-12-10T00:57:16;95247.96;;;1.95;91.40
72118;BME280;59992;47.490;8.736;2022-12-10T01:00:09;95246.83;;;1.93;91.09
72118;BME280;59992;47.490;8.736;2022-12-10T01:02:59;95244.39;;;1.88;90.70
72118;BME280;59992;47.490;8.736;2022-12-10T01:05:49;95245.68;;;1.83;91.14
72118;BME280;59992;47.490;8.736;2022-12-10T01:08:40;95243.85;;;1.78;91.81
72118;BME280;59992;47.490;8.736;2022-12-10T01:11:32;95254.83;;;1.76;92.74
72118;BME280;59992;47.490;8.736;2022-12-10T01:14:24;95256.71;;;1.73;92.04
72118;BME280;59992;47.490;8.736;2022-12-10T01:17:15;95255.67;;;1.74;91.24
72118;BME280;59992;47.490;8.736;2022-12-10T01:20:06;95258.80;;;1.76;91.03
72118;BME280;59992;47.490;8.736;2022-12-10T01:22:57;95256.09;;;1.82;91.07
72118;BME280;59992;47.490;8.736;2022-12-10T01:25:47;95260.73;;;1.89;90.87
72118;BME280;59992;47.490;8.736;2022-12-10T01:28:38;95262.93;;;1.90;90.91
72118;BME280;59992;47.490;8.736;2022-12-10T01:31:30;95270.21;;;1.91;90.56
72118;BME280;59992;47.490;8.736;2022-12-10T01:34:21;95270.67;;;1.92;90.20
72118;BME280;59992;47.490;8.736;2022-12-10T01:37:11;95274.42;;;1.93;90.39
72118;BME280;59992;47.490;8.736;2022-12-10T01:40:02;95268.90;;;1.93;90.15
72118;BME280;59992;47.490;8.736;2022-12-10T01:42:53;95270.15;;;1.92;90.53
72118;BME280;59992;47.490;8.736;2022-12-10T01:45:43;95268.55;;;1.88;90.87
72118;BME280;59992;47.490;8.736;2022-12-10T01:48:34;95269.21;;;1.90;90.73
72118;BME280;59992;47.490;8.736;2022-12-10T01:51:26;95272.54;;;1.89;90.58
72118;BME280;59992;47.490;8.736;2022-12-10T01:54:20;95256.02;;;1.72;90.73
72118;BME280;59992;47.490;8.736;2022-12-10T01:57:13;95273.14;;;1.76;91.09
72118;BME280;59992;47.490;8.736;2022-12-10T02:00:07;95271.46;;;1.75;91.15
72118;BME280;59992;47.490;8.736;2022-12-10T02:03:00;95267.96;;;1.78;91.01
72118;BME280;59992;47.490;8.736;2022-12-10T02:06:02;95261.96;;;1.75;91.51
72118;BME280;59992;47.490;8.736;2022-12-10T02:09:04;95271.74;;;1.75;92.27
72118;BME280;59992;47.490;8.736;2022-12-10T02:12:05;95278.73;;;1.76;92.69
72118;BME280;59992;47.490;8.736;2022-12-10T02:15:00;95278.10;;;1.75;92.86
72118;BME280;59992;47.490;8.736;2022-12-10T02:17:55;95280.39;;;1.77;92.54
72118;BME280;59992;47.490;8.736;2022-12-10T02:20:49;95279.23;;;1.76;92.10
72118;BME280;59992;47.490;8.736;2022-12-10T02:23:43;95284.02;;;1.76;92.03
72118;BME280;59992;47.490;8.736;2022-12-10T02:26:40;95283.91;;;1.75;91.49
72118;BME280;59992;47.490;8.736;2022-12-10T02:29:34;95286.66;;;1.74;91.75
72118;BME280;59992;47.490;8.736;2022-12-10T02:32:27;95284.63;;;1.74;92.64
72118;BME280;59992;47.490;8.736;2022-12-10T02:35:25;95283.27;;;1.78;93.06
72118;BME280;59992;47.490;8.736;2022-12-10T02:38:19;95284.52;;;1.87;92.11
72118;BME280;59992;47.490;8.736;2022-12-10T02:41:16;95281.11;;;1.92;91.78
72118;BME280;59992;47.490;8.736;2022-12-10T02:44:10;95281.77;;;1.97;91.56
72118;BME280;59992;47.490;8.736;2022-12-10T02:47:02;95278.69;;;1.99;91.03
72118;BME280;59992;47.490;8.736;2022-12-10T02:49:55;95274.44;;;1.97;91.69
72118;BME280;59992;47.490;8.736;2022-12-10T02:52:46;95267.61;;;1.92;91.83
72118;BME280;59992;47.490;8.736;2022-12-10T02:55:45;95265.15;;;1.91;91.36
72118;BME280;59992;47.490;8.736;2022-12-10T02:58:47;95262.43;;;1.87;91.83
72118;BME280;59992;47.490;8.736;2022-12-10T03:01:44;95265.53;;;1.87;91.00
72118;BME280;59992;47.490;8.736;2022-12-10T03:04:42;95261.82;;;1.78;90.86
72118;BME280;59992;47.490;8.736;2022-12-10T03:07:36;95268.45;;;1.74;92.83
72118;BME280;59992;47.490;8.736;2022-12-10T03:10:33;95265.50;;;1.73;92.84
72118;BME280;59992;47.490;8.736;2022-12-10T03:13:34;95266.41;;;1.76;92.87
72118;BME280;59992;47.490;8.736;2022-12-10T03:16:28;95268.48;;;1.70;91.99
72118;BME280;59992;47.490;8.736;2022-12-10T03:19:23;95268.10;;;1.72;92.14
72118;BME280;59992;47.490;8.736;2022-12-10T03:22:17;95268.02;;;1.72;91.68
72118;BME280;59992;47.490;8.736;2022-12-10T03:25:09;95269.12;;;1.74;91.57
72118;BME280;59992;47.490;8.736;2022-12-10T03:28:01;95268.23;;;1.78;91.65
72118;BME280;59992;47.490;8.736;2022-12-10T03:30:53;95262.48;;;1.80;91.35
72118;BME280;59992;47.490;8.736;2022-12-10T03:33:46;95249.04;;;1.83;91.13
72118;BME280;59992;47.490;8.736;2022-12-10T03:36:39;95242.66;;;1.85;91.01
72118;BME280;59992;47.490;8.736;2022-12-10T03:39:31;95235.55;;;1.90;90.78
72118;BME280;59992;47.490;8.736;2022-12-10T03:42:22;95240.63;;;1.94;90.92
72118;BME280;59992;47.490;8.736;2022-12-10T03:45:12;95252.60;;;1.95;91.76
72118;BME280;59992;47.490;8.736;2022-12-10T03:48:02;95253.89;;;1.92;91.80
72118;BME280;59992;47.490;8.736;2022-12-10T03:50:53;95245.27;;;1.91;91.95
72118;BME280;59992;47.490;8.736;2022-12-10T03:53:43;95252.89;;;1.91;92.30
72118;BME280;59992;47.490;8.736;2022-12-10T03:56:33;95257.70;;;1.89;92.19
72118;BME280;59992;47.490;8.736;2022-12-10T03:59:24;95261.48;;;1.88;92.42
72118;BME280;59992;47.490;8.736;2022-12-10T04:02:14;95261.77;;;1.88;93.12
72118;BME280;59992;47.490;8.736;2022-12-10T04:05:05;95258.15;;;1.93;92.43
72118;BME280;59992;47.490;8.736;2022-12-10T04:07:56;95255.41;;;1.91;92.51
72118;BME280;59992;47.490;8.736;2022-12-10T04:10:46;95260.61;;;1.92;92.27
72118;BME280;59992;47.490;8.736;2022-12-10T04:13:37;95262.58;;;1.94;92.00
72118;BME280;59992;47.490;8.736;2022-12-10T04:16:45;95271.36;;;1.93;92.13
72118;BME280;59992;47.490;8.736;2022-12-10T04:19:36;95272.66;;;1.91;92.27
72118;BME280;59992;47.490;8.736;2022-12-10T04:22:26;95276.09;;;1.90;92.69
72118;BME280;59992;47.490;8.736;2022-12-10T04:25:34;95277.46;;;1.89;92.38
72118;BME280;59992;47.490;8.736;2022-12-10T04:28:42;95275.33;;;1.87;92.07
72118;BME280;59992;47.490;8.736;2022-12-10T04:31:33;95275.16;;;1.87;91.58
72118;BME280;59992;47.490;8.736;2022-12-10T04:34:24;95268.19;;;1.85;91.51
72118;BME280;59992;47.490;8.736;2022-12-10T04:37:15;95262.52;;;1.85;91.07
72118;BME280;59992;47.490;8.736;2022-12-10T04:40:07;95257.40;;;1.86;90.96
72118;BME280;59992;47.490;8.736;2022-12-10T04:42:57;95254.73;;;1.87;91.00
72118;BME280;59992;47.490;8.736;2022-12-10T04:45:47;95259.03;;;1.92;91.22
72118;BME280;59992;47.490;8.736;2022-12-10T04:48:37;95268.27;;;1.91;91.25
72118;BME280;59992;47.490;8.736;2022-12-10T04:51:28;95274.29;;;1.87;91.59
72118;BME280;59992;47.490;8.736;2022-12-10T04:54:18;95270.18;;;1.84;91.43
72118;BME280;59992;47.490;8.736;2022-12-10T04:57:10;95270.35;;;1.81;90.95
72118;BME280;59992;47.490;8.736;2022-12-10T05:00:01;95268.52;;;1.80;91.11
72118;BME280;59992;47.490;8.736;2022-12-10T05:02:52;95267.38;;;1.79;91.76
72118;BME280;59992;47.490;8.736;2022-12-10T05:05:42;95260.27;;;1.82;91.47
72118;BME280;59992;47.490;8.736;2022-12-10T05:08:33;95259.63;;;1.82;91.25
72118;BME280;59992;47.490;8.736;2022-12-10T05:11:25;95265.65;;;1.79;91.01
72118;BME280;59992;47.490;8.736;2022-12-10T05:14:18;95269.09;;;1.76;91.33
72118;BME280;59992;47.490;8.736;2022-12-10T05:17:08;95267.20;;;1.72;91.51
72118;BME280;59992;47.490;8.736;2022-12-10T05:19:58;95268.91;;;1.72;92.45
72118;BME280;59992;47.490;8.736;2022-12-10T05:22:48;95275.88;;;1.70;91.84
72118;BME280;59992;47.490;8.736;2022-12-10T05:26:05;95272.30;;;1.70;92.50
72118;BME280;59992;47.490;8.736;2022-12-10T05:28:56;95272.72;;;1.72;91.89
72118;BME280;59992;47.490;8.736;2022-12-10T05:31:47;95277.93;;;1.69;91.59
72118;BME280;59992;47.490;8.736;2022-12-10T05:34:37;95285.72;;;1.67;92.68
72118;BME280;59992;47.490;8.736;2022-12-10T05:37:28;95284.27;;;1.72;92.11
72118;BME280;59992;47.490;8.736;2022-12-10T05:40:18;95275.19;;;1.73;92.00
72118;BME280;59992;47.490;8.736;2022-12-10T05:43:09;95283.38;;;1.77;91.90
72118;BME280;59992;47.490;8.736;2022-12-10T05:46:02;95286.45;;;1.75;92.07
72118;BME280;59992;47.490;8.736;2022-12-10T05:48:53;95282.00;;;1.76;92.71
72118;BME280;59992;47.490;8.736;2022-12-10T05:51:43;95286.77;;;1.76;92.37
72118;BME280;59992;47.490;8.736;2022-12-10T05:54:33;95292.38;;;1.79;91.98
72118;BME280;59992;47.490;8.736;2022-12-10T05:57:24;95297.13;;;1.81;91.09
72118;BME280;59992;47.490;8.736;2022-12-10T06:00:15;95293.73;;;1.77;90.97
72118;BME280;59992;47.490;8.736;2022-12-10T06:03:05;95295.80;;;1.70;91.50
72118;BME280;59992;47.490;8.736;2022-12-10T06:05:56;95301.98;;;1.64;92.27
72118;BME280;59992;47.490;8.736;2022-12-10T06:08:46;95302.27;;;1.63;93.22
72118;BME280;59992;47.490;8.736;2022-12-10T06:11:37;95309.42;;;1.64;92.96
72118;BME280;59992;47.490;8.736;2022-12-10T06:14:27;95306.74;;;1.66;92.99
72118;BME280;59992;47.490;8.736;2022-12-10T06:17:17;95307.59;;;1.70;91.97
72118;BME280;59992;47.490;8.736;2022-12-10T06:20:10;95307.95;;;1.69;91.57
72118;BME280;59992;47.490;8.736;2022-12-10T06:23:00;95303.25;;;1.70;92.37
72118;BME280;59992;47.490;8.736;2022-12-10T06:25:50;95307.26;;;1.72;92.19
72118;BME280;59992;47.490;8.736;2022-12-10T06:28:41;95304.23;;;1.70;91.40
72118;BME280;59992;47.490;8.736;2022-12-10T06:31:31;95293.73;;;1.71;91.80
72118;BME280;59992;47.490;8.736;2022-12-10T06:34:22;95304.27;;;1.72;91.21
72118;BME280;59992;47.490;8.736;2022-12-10T06:37:12;95314.66;;;1.66;91.22
72118;BME280;59992;47.490;8.736;2022-12-10T06:40:04;95320.15;;;1.62;91.73
72118;BME280;59992;47.490;8.736;2022-12-10T06:42:54;95318.77;;;1.59;91.88
72118;BME280;59992;47.490;8.736;2022-12-10T06:45:44;95315.06;;;1.57;90.98
72118;BME280;59992;47.490;8.736;2022-12-10T06:48:35;95309.28;;;1.55;92.09
72118;BME280;59992;47.490;8.736;2022-12-10T06:51:26;95317.25;;;1.55;92.11
72118;BME280;59992;47.490;8.736;2022-12-10T06:54:29;95318.97;;;1.55;92.27
72118;BME280;59992;47.490;8.736;2022-12-10T06:57:19;95323.41;;;1.56;92.04
72118;BME280;59992;47.490;8.736;2022-12-10T07:00:13;95324.97;;;1.55;91.61
72118;BME280;59992;47.490;8.736;2022-12-10T07:03:04;95329.40;;;1.54;91.27
72118;BME280;59992;47.490;8.736;2022-12-10T07:05:58;95335.14;;;1.51;91.12
72118;BME280;59992;47.490;8.736;2022-12-10T07:08:49;95340.22;;;1.46;91.82
72118;BME280;59992;47.490;8.736;2022-12-10T07:11:39;95333.73;;;1.49;92.14
72118;BME280;59992;47.490;8.736;2022-12-10T07:14:30;95334.21;;;1.50;92.36
72118;BME280;59992;47.490;8.736;2022-12-10T07:17:20;95331.94;;;1.52;92.22
72118;BME280;59992;47.490;8.736;2022-12-10T07:20:11;95337.57;;;1.53;93.07
72118;BME280;59992;47.490;8.736;2022-12-10T07:23:02;95345.26;;;1.58;92.54
72118;BME280;59992;47.490;8.736;2022-12-10T07:25:55;95346.55;;;1.59;92.60
72118;BME280;59992;47.490;8.736;2022-12-10T07:28:45;95340.45;;;1.63;92.23
72118;BME280;59992;47.490;8.736;2022-12-10T07:31:36;95341.99;;;1.62;92.06
72118;BME280;59992;47.490;8.736;2022-12-10T07:34:27;95346.83;;;1.61;92.42
72118;BME280;59992;47.490;8.736;2022-12-10T07:37:17;95346.91;;;1.62;92.52
72118;BME280;59992;47.490;8.736;2022-12-10T07:40:10;95346.69;;;1.64;92.09
72118;BME280;59992;47.490;8.736;2022-12-10T07:43:00;95344.04;;;1.66;91.88
72118;BME280;59992;47.490;8.736;2022-12-10T07:45:50;95340.75;;;1.66;91.88
72118;BME280;59992;47.490;8.736;2022-12-10T07:48:41;95349.02;;;1.73;92.05
72118;BME280;59992;47.490;8.736;2022-12-10T07:51:32;95350.83;;;1.77;91.65
72118;BME280;59992;47.490;8.736;2022-12-10T07:54:22;95356.05;;;1.77;91.31
72118;BME280;59992;47.490;8.736;2022-12-10T07:57:13;95356.70;;;1.75;92.06
72118;BME280;59992;47.490;8.736;2022-12-10T08:00:05;95362.36;;;1.75;91.68
72118;BME280;59992;47.490;8.736;2022-12-10T08:02:55;95363.60;;;1.74;91.61
72118;BME280;59992;47.490;8.736;2022-12-10T08:05:45;95367.46;;;1.71;91.81
72118;BME280;59992;47.490;8.736;2022-12-10T08:08:37;95367.57;;;1.72;92.00
72118;BME280;59992;47.490;8.736;2022-12-10T08:11:29;95370.71;;;1.73;92.02
72118;BME280;59992;47.490;8.736;2022-12-10T08:14:20;95371.77;;;1.75;91.83
72118;BME280;59992;47.490;8.736;2022-12-10T08:17:10;95379.45;;;1.76;91.35
72118;BME280;59992;47.490;8.736;2022-12-10T08:20:01;95387.98;;;1.74;90.98
72118;BME280;59992;47.490;8.736;2022-12-10T08:22:51;95395.80;;;1.70;91.07
72118;BME280;59992;47.490;8.736;2022-12-10T08:25:41;95401.90;;;1.70;90.95
72118;BME280;59992;47.490;8.736;2022-12-10T08:28:32;95404.89;;;1.69;91.20
72118;BME280;59992;47.490;8.736;2022-12-10T08:31:24;95408.52;;;1.71;90.99
72118;BME280;59992;47.490;8.736;2022-12-10T08:34:16;95415.48;;;1.69;91.01
72118;BME280;59992;47.490;8.736;2022-12-10T08:37:06;95421.33;;;1.65;91.09
72118;BME280;59992;47.490;8.736;2022-12-10T08:39:57;95419.27;;;1.58;90.82
72118;BME280;59992;47.490;8.736;2022-12-10T08:42:48;95418.39;;;1.61;90.75
72118;BME280;59992;47.490;8.736;2022-12-10T08:45:38;95423.58;;;1.60;90.86
72118;BME280;59992;47.490;8.736;2022-12-10T08:48:29;95424.02;;;1.58;90.21
72118;BME280;59992;47.490;8.736;2022-12-10T08:51:20;95423.55;;;1.54;90.38
72118;BME280;59992;47.490;8.736;2022-12-10T08:54:10;95430.01;;;1.48;90.34
72118;BME280;59992;47.490;8.736;2022-12-10T08:57:10;95439.84;;;1.47;90.99
72118;BME280;59992;47.490;8.736;2022-12-10T09:00:01;95444.02;;;1.50;90.96
72118;BME280;59992;47.490;8.736;2022-12-10T09:02:51;95444.66;;;1.49;90.71
72118;BME280;59992;47.490;8.736;2022-12-10T09:05:43;95444.89;;;1.54;90.62
72118;BME280;59992;47.490;8.736;2022-12-10T09:08:34;95445.73;;;1.60;90.78
72118;BME280;59992;47.490;8.736;2022-12-10T09:11:26;95446.30;;;1.62;90.99
72118;BME280;59992;47.490;8.736;2022-12-10T09:14:17;95445.83;;;1.63;91.11
72118;BME280;59992;47.490;8.736;2022-12-10T09:17:07;95451.52;;;1.67;90.65
72118;BME280;59992;47.490;8.736;2022-12-10T09:19:58;95454.00;;;1.67;90.41
72118;BME280;59992;47.490;8.736;2022-12-10T09:22:48;95458.73;;;1.71;90.72
72118;BME280;59992;47.490;8.736;2022-12-10T09:25:38;95462.23;;;1.71;90.59
72118;BME280;59992;47.490;8.736;2022-12-10T09:28:28;95465.42;;;1.72;90.35
72118;BME280;59992;47.490;8.736;2022-12-10T09:31:19;95475.54;;;1.71;90.28
72118;BME280;59992;47.490;8.736;2022-12-10T09:34:10;95478.10;;;1.70;90.20
72118;BME280;59992;47.490;8.736;2022-12-10T09:37:00;95477.17;;;1.69;90.55
72118;BME280;59992;47.490;8.736;2022-12-10T09:39:50;95482.05;;;1.69;90.40
72118;BME280;59992;47.490;8.736;2022-12-10T09:42:47;95487.38;;;1.71;90.52
72118;BME280;59992;47.490;8.736;2022-12-10T09:45:45;95489.77;;;1.68;90.59
72118;BME280;59992;47.490;8.736;2022-12-10T09:48:50;95488.14;;;1.66;90.56
72118;BME280;59992;47.490;8.736;2022-12-10T09:51:44;95485.20;;;1.63;90.04
72118;BME280;59992;47.490;8.736;2022-12-10T09:54:37;95487.48;;;1.64;90.52
72118;BME280;59992;47.490;8.736;2022-12-10T09:57:29;95486.80;;;1.64;90.21
72118;BME280;59992;47.490;8.736;2022-12-10T10:00:25;95487.70;;;1.61;90.37
72118;BME280;59992;47.490;8.736;2022-12-10T10:03:17;95485.08;;;1.61;90.37
72118;BME280;59992;47.490;8.736;2022-12-10T10:06:10;95488.73;;;1.61;90.81
72118;BME280;59992;47.490;8.736;2022-12-10T10:09:03;95484.66;;;1.65;90.37
72118;BME280;59992;47.490;8.736;2022-12-10T10:11:54;95482.02;;;1.69;90.49
72118;BME280;59992;47.490;8.736;2022-12-10T10:14:45;95479.10;;;1.71;90.71
72118;BME280;59992;47.490;8.736;2022-12-10T10:17:37;95482.67;;;1.73;89.93
72118;BME280;59992;47.490;8.736;2022-12-10T10:20:28;95482.45;;;1.76;90.32
72118;BME280;59992;47.490;8.736;2022-12-10T10:23:19;95486.68;;;1.80;90.17
72118;BME280;59992;47.490;8.736;2022-12-10T10:26:10;95490.10;;;1.82;90.31
72118;BME280;59992;47.490;8.736;2022-12-10T10:29:02;95494.21;;;1.82;89.56
72118;BME280;59992;47.490;8.736;2022-12-10T10:32:14;95501.79;;;1.81;90.28
72118;BME280;59992;47.490;8.736;2022-12-10T10:35:06;95505.73;;;1.81;89.89
72118;BME280;59992;47.490;8.736;2022-12-10T10:38:01;95505.55;;;1.85;89.57
72118;BME280;59992;47.490;8.736;2022-12-10T10:40:56;95503.42;;;1.81;89.59
72118;BME280;59992;47.490;8.736;2022-12-10T10:43:47;95505.16;;;1.81;89.67
72118;BME280;59992;47.490;8.736;2022-12-10T10:46:40;95507.76;;;1.81;90.40
72118;BME280;59992;47.490;8.736;2022-12-10T10:49:32;95510.09;;;1.85;90.09
72118;BME280;59992;47.490;8.736;2022-12-10T10:52:23;95505.73;;;1.89;89.09
72118;BME280;59992;47.490;8.736;2022-12-10T10:55:33;95509.77;;;1.89;88.73
72118;BME280;59992;47.490;8.736;2022-12-10T10:58:24;95509.64;;;1.84;89.65
72118;BME280;59992;47.490;8.736;2022-12-10T11:01:15;95513.52;;;1.81;89.34
72118;BME280;59992;47.490;8.736;2022-12-10T11:04:05;95514.38;;;1.75;89.61
72118;BME280;59992;47.490;8.736;2022-12-10T11:06:59;95517.91;;;1.73;89.95
72118;BME280;59992;47.490;8.736;2022-12-10T11:09:51;95511.06;;;1.74;90.21
72118;BME280;59992;47.490;8.736;2022-12-10T11:12:42;95512.38;;;1.76;90.26
72118;BME280;59992;47.490;8.736;2022-12-10T11:15:36;95517.25;;;1.79;90.31
72118;BME280;59992;47.490;8.736;2022-12-10T11:18:32;95516.89;;;1.82;90.19
72118;BME280;59992;47.490;8.736;2022-12-10T11:21:23;95514.89;;;1.82;88.93
72118;BME280;59992;47.490;8.736;2022-12-10T11:24:17;95520.20;;;1.83;89.27
72118;BME280;59992;47.490;8.736;2022-12-10T11:27:11;95517.38;;;1.75;88.69
72118;BME280;59992;47.490;8.736;2022-12-10T11:30:08;95520.46;;;1.78;88.90
72118;BME280;59992;47.490;8.736;2022-12-10T11:33:19;95520.00;;;1.76;89.46
72118;BME280;59992;47.490;8.736;2022-12-10T11:36:23;95522.08;;;1.76;89.11
72118;BME280;59992;47.490;8.736;2022-12-10T11:39:30;95523.88;;;1.71;88.46
72118;BME280;59992;47.490;8.736;2022-12-10T11:42:36;95530.26;;;1.72;88.74
72118;BME280;59992;47.490;8.736;2022-12-10T11:45:33;95535.73;;;1.73;88.95
72118;BME280;59992;47.490;8.736;2022-12-10T11:48:40;95535.73;;;1.75;88.95
72118;BME280;59992;47.490;8.736;2022-12-10T11:51:38;95539.13;;;1.76;88.99
72118;BME280;59992;47.490;8.736;2022-12-10T11:54:40;95537.95;;;1.80;89.14
72118;BME280;59992;47.490;8.736;2022-12-10T11:57:40;95538.41;;;1.75;87.85
72118;BME280;59992;47.490;8.736;2022-12-10T12:00:39;95543.49;;;1.78;87.22
72118;BME280;59992;47.490;8.736;2022-12-10T12:03:42;95548.56;;;1.75;87.20
72118;BME280;59992;47.490;8.736;2022-12-10T12:06:57;95550.23;;;1.76;86.98
72118;BME280;59992;47.490;8.736;2022-12-10T12:13:08;95555.20;;;1.63;86.73
72118;BME280;59992;47.490;8.736;2022-12-10T12:16:03;95562.92;;;1.64;87.13
72118;BME280;59992;47.490;8.736;2022-12-10T12:19:00;95567.91;;;1.61;87.50
72118;BME280;59992;47.490;8.736;2022-12-10T12:21:52;95570.74;;;1.59;88.21
72118;BME280;59992;47.490;8.736;2022-12-10T12:24:45;95569.94;;;1.59;88.50
72118;BME280;59992;47.490;8.736;2022-12-10T12:27:40;95575.31;;;1.57;88.14
72118;BME280;59992;47.490;8.736;2022-12-10T12:30:33;95588.70;;;1.55;89.14
72118;BME280;59992;47.490;8.736;2022-12-10T12:33:31;95590.00;;;1.52;88.44
72118;BME280;59992;47.490;8.736;2022-12-10T12:36:25;95588.77;;;1.50;88.31
72118;BME280;59992;47.490;8.736;2022-12-10T12:39:22;95589.60;;;1.46;88.37
72118;BME280;59992;47.490;8.736;2022-12-10T12:42:21;95595.74;;;1.47;87.91
72118;BME280;59992;47.490;8.736;2022-12-10T12:45:15;95595.02;;;1.46;88.25
72118;BME280;59992;47.490;8.736;2022-12-10T12:48:16;95597.66;;;1.46;88.65
72118;BME280;59992;47.490;8.736;2022-12-10T12:51:12;95596.70;;;1.47;87.10
72118;BME280;59992;47.490;8.736;2022-12-10T12:54:08;95594.12;;;1.50;86.76
72118;BME280;59992;47.490;8.736;2022-12-10T12:57:07;95592.80;;;1.39;87.54
72118;BME280;59992;47.490;8.736;2022-12-10T13:00:05;95607.38;;;1.42;87.26
72118;BME280;59992;47.490;8.736;2022-12-10T13:03:08;95614.48;;;1.38;87.01
72118;BME280;59992;47.490;8.736;2022-12-10T13:06:20;95616.80;;;1.37;86.82
72118;BME280;59992;47.490;8.736;2022-12-10T13:09:26;95616.85;;;1.31;88.25
72118;BME280;59992;47.490;8.736;2022-12-10T13:12:29;95617.06;;;1.31;88.36
72118;BME280;59992;47.490;8.736;2022-12-10T13:15:22;95624.67;;;1.28;88.83
72118;BME280;59992;47.490;8.736;2022-12-10T13:18:35;95631.07;;;1.28;89.44
72118;BME280;59992;47.490;8.736;2022-12-10T13:21:31;95637.14;;;1.33;89.03
72118;BME280;59992;47.490;8.736;2022-12-10T13:27:34;95646.48;;;1.29;89.26
72118;BME280;59992;47.490;8.736;2022-12-10T13:30:32;95652.02;;;1.26;89.00
72118;BME280;59992;47.490;8.736;2022-12-10T13:33:24;95646.97;;;1.24;89.86
72118;BME280;59992;47.490;8.736;2022-12-10T13:36:14;95645.25;;;1.33;89.26
72118;BME280;59992;47.490;8.736;2022-12-10T13:39:22;95647.73;;;1.33;87.50
72118;BME280;59992;47.490;8.736;2022-12-10T13:42:30;95657.23;;;1.29;87.44
72118;BME280;59992;47.490;8.736;2022-12-10T13:45:39;95659.89;;;1.25;88.25
72118;BME280;59992;47.490;8.736;2022-12-10T13:48:31;95665.86;;;1.24;87.85
72118;BME280;59992;47.490;8.736;2022-12-10T13:51:31;95672.05;;;1.20;89.28
72118;BME280;59992;47.490;8.736;2022-12-10T13:54:51;95675.41;;;1.25;88.37
72118;BME280;59992;47.490;8.736;2022-12-10T13:58:02;95679.43;;;1.27;86.41
72118;BME280;59992;47.490;8.736;2022-12-10T14:01:00;95688.70;;;1.29;86.10
72118;BME280;59992;47.490;8.736;2022-12-10T14:04:05;95688.77;;;1.31;86.16
72118;BME280;59992;47.490;8.736;2022-12-10T14:06:57;95694.88;;;1.27;87.16
72118;BME280;59992;47.490;8.736;2022-12-10T14:09:52;95697.39;;;1.22;86.34
72118;BME280;59992;47.490;8.736;2022-12-10T14:12:43;95695.38;;;1.20;87.35
72118;BME280;59992;47.490;8.736;2022-12-10T14:15:36;95700.66;;;1.24;86.87
72118;BME280;59992;47.490;8.736;2022-12-10T14:18:29;95704.16;;;1.24;86.90
72118;BME280;59992;47.490;8.736;2022-12-10T14:21:19;95710.40;;;1.23;87.28
72118;BME280;59992;47.490;8.736;2022-12-10T14:24:30;95722.84;;;1.24;87.35
72118;BME280;59992;47.490;8.736;2022-12-10T14:27:25;95723.73;;;1.25;87.51
72118;BME280;59992;47.490;8.736;2022-12-10T14:30:19;95723.55;;;1.26;85.37
72118;BME280;59992;47.490;8.736;2022-12-10T14:33:14;95728.21;;;1.23;85.21
72118;BME280;59992;47.490;8.736;2022-12-10T14:36:06;95729.05;;;1.21;85.55
72118;BME280;59992;47.490;8.736;2022-12-10T14:38:57;95725.09;;;1.15;86.98
72118;BME280;59992;47.490;8.736;2022-12-10T14:41:49;95735.55;;;1.22;86.37
72118;BME280;59992;47.490;8.736;2022-12-10T14:44:41;95742.05;;;1.24;85.41
72118;BME280;59992;47.490;8.736;2022-12-10T14:47:37;95738.48;;;1.22;84.77
72118;BME280;59992;47.490;8.736;2022-12-10T14:50:29;95734.15;;;1.20;85.41
72118;BME280;59992;47.490;8.736;2022-12-10T14:53:22;95735.88;;;1.18;86.08
72118;BME280;59992;47.490;8.736;2022-12-10T14:56:17;95733.42;;;1.09;86.99
72118;BME280;59992;47.490;8.736;2022-12-10T14:59:13;95736.09;;;1.11;86.72
72118;BME280;59992;47.490;8.736;2022-12-10T15:02:14;95743.96;;;1.04;87.53
72118;BME280;59992;47.490;8.736;2022-12-10T15:05:11;95755.83;;;1.05;87.78
72118;BME280;59992;47.490;8.736;2022-12-10T15:08:04;95758.85;;;1.04;88.58
72118;BME280;59992;47.490;8.736;2022-12-10T15:10:57;95763.80;;;1.04;88.45
72118;BME280;59992;47.490;8.736;2022-12-10T15:13:50;95765.55;;;1.03;90.27
72118;BME280;59992;47.490;8.736;2022-12-10T15:16:43;95768.93;;;1.06;90.23
72118;BME280;59992;47.490;8.736;2022-12-10T15:19:34;95773.46;;;1.08;90.35
72118;BME280;59992;47.490;8.736;2022-12-10T15:22:31;95772.55;;;1.07;90.50
72118;BME280;59992;47.490;8.736;2022-12-10T15:25:28;95772.50;;;1.06;90.72
72118;BME280;59992;47.490;8.736;2022-12-10T15:28:26;95774.96;;;1.00;91.12
72118;BME280;59992;47.490;8.736;2022-12-10T15:31:21;95776.73;;;1.01;90.72
72118;BME280;59992;47.490;8.736;2022-12-10T15:34:14;95776.98;;;1.00;89.80
72118;BME280;59992;47.490;8.736;2022-12-10T15:37:12;95776.25;;;1.00;88.41